sensor_id;sensor_type;location;lat;lon;timestamp;temperature;humidity
51739;DHT22;37815;52.692;6.226;2023-05-15T00:01:33;17.20;96.80
51739;DHT22;37815;52.692;6.226;2023-05-15T00:06:34;17.30;96.80
51739;DHT22;37815;52.692;6.226;2023-05-15T00:11:35;17.10;96.70
51739;DHT22;37815;52.692;6.226;2023-05-15T00:16:35;17.10;96.70
51739;DHT22;37815;52.692;6.226;2023-05-15T00:21:36;17.00;96.70
51739;DHT22;37815;52.692;6.226;2023-05-15T00:26:37;17.10;96.70
51739;DHT22;37815;52.692;6.226;2023-05-15T00:31:37;17.00;96.70
51739;DHT22;37815;52.692;6.226;2023-05-15T00:36:38;17.00;96.70
51739;DHT22;37815;52.692;6.226;2023-05-15T00:41:40;17.00;96.70
51739;DHT22;37815;52.692;6.226;2023-05-15T00:46:42;17.00;96.70
51739;DHT22;37815;52.692;6.226;2023-05-15T00:51:44;16.90;96.70
51739;DHT22;37815;52.692;6.226;2023-05-15T00:56:46;16.90;96.70
51739;DHT22;37815;52.692;6.226;2023-05-15T01:01:47;16.90;96.70
51739;DHT22;37815;52.692;6.226;2023-05-15T01:06:48;16.90;96.70
51739;DHT22;37815;52.692;6.226;2023-05-15T01:11:50;16.80;96.60
51739;DHT22;37815;52.692;6.226;2023-05-15T01:16:52;16.80;96.60
51739;DHT22;37815;52.692;6.226;2023-05-15T01:32:27;16.70;96.70
51739;DHT22;37815;52.692;6.226;2023-05-15T01:37:31;16.70;96.60
51739;DHT22;37815;52.692;6.226;2023-05-15T01:42:35;16.70;96.70
51739;DHT22;37815;52.692;6.226;2023-05-15T01:47:45;16.70;96.70
51739;DHT22;37815;52.692;6.226;2023-05-15T01:52:50;16.70;96.70
51739;DHT22;37815;52.692;6.226;2023-05-15T01:57:54;16.60;96.60
51739;DHT22;37815;52.692;6.226;2023-05-15T02:02:56;16.60;96.70
51739;DHT22;37815;52.692;6.226;2023-05-15T02:07:58;16.60;96.70
51739;DHT22;37815;52.692;6.226;2023-05-15T02:13:00;16.50;96.60
51739;DHT22;37815;52.692;6.226;2023-05-15T02:18:01;16.50;96.70
51739;DHT22;37815;52.692;6.226;2023-05-15T02:23:01;16.50;96.60
51739;DHT22;37815;52.692;6.226;2023-05-15T02:28:05;16.40;96.60
51739;DHT22;37815;52.692;6.226;2023-05-15T02:33:21;16.40;96.60
51739;DHT22;37815;52.692;6.226;2023-05-15T02:38:41;16.40;96.60
51739;DHT22;37815;52.692;6.226;2023-05-15T02:43:44;16.40;96.60
51739;DHT22;37815;52.692;6.226;2023-05-15T02:48:46;16.40;96.70
51739;DHT22;37815;52.692;6.226;2023-05-15T02:53:48;16.30;96.70
51739;DHT22;37815;52.692;6.226;2023-05-15T02:58:49;16.30;96.60
51739;DHT22;37815;52.692;6.226;2023-05-15T03:03:49;16.30;96.70
51739;DHT22;37815;52.692;6.226;2023-05-15T03:08:50;16.30;96.90
51739;DHT22;37815;52.692;6.226;2023-05-15T03:13:50;16.30;96.70
51739;DHT22;37815;52.692;6.226;2023-05-15T03:18:51;16.30;96.60
51739;DHT22;37815;52.692;6.226;2023-05-15T03:23:52;16.20;96.60
51739;DHT22;37815;52.692;6.226;2023-05-15T03:28:53;16.20;96.60
51739;DHT22;37815;52.692;6.226;2023-05-15T03:33:54;16.20;96.60
51739;DHT22;37815;52.692;6.226;2023-05-15T03:38:55;16.20;96.60
51739;DHT22;37815;52.692;6.226;2023-05-15T03:43:55;16.20;96.60
51739;DHT22;37815;52.692;6.226;2023-05-15T03:48:56;16.10;96.60
51739;DHT22;37815;52.692;6.226;2023-05-15T03:53:56;16.10;96.60
51739;DHT22;37815;52.692;6.226;2023-05-15T03:58:58;16.10;96.60
51739;DHT22;37815;52.692;6.226;2023-05-15T04:03:58;16.10;96.60
51739;DHT22;37815;52.692;6.226;2023-05-15T04:08:59;16.00;96.60
51739;DHT22;37815;52.692;6.226;2023-05-15T04:14:00;16.00;96.60
51739;DHT22;37815;52.692;6.226;2023-05-15T04:19:00;16.10;96.60
51739;DHT22;37815;52.692;6.226;2023-05-15T04:24:01;16.00;96.60
51739;DHT22;37815;52.692;6.226;2023-05-15T04:29:01;16.00;96.60
51739;DHT22;37815;52.692;6.226;2023-05-15T04:34:02;15.90;96.50
51739;DHT22;37815;52.692;6.226;2023-05-15T04:39:04;15.90;96.60
51739;DHT22;37815;52.692;6.226;2023-05-15T04:44:06;15.90;96.50
51739;DHT22;37815;52.692;6.226;2023-05-15T04:49:07;15.90;96.50
51739;DHT22;37815;52.692;6.226;2023-05-15T04:54:08;15.90;96.50
51739;DHT22;37815;52.692;6.226;2023-05-15T04:59:09;15.80;96.50
51739;DHT22;37815;52.692;6.226;2023-05-15T05:04:10;15.90;96.50
51739;DHT22;37815;52.692;6.226;2023-05-15T05:09:11;15.80;96.40
51739;DHT22;37815;52.692;6.226;2023-05-15T05:14:12;15.90;96.50
51739;DHT22;37815;52.692;6.226;2023-05-15T05:19:13;15.80;96.40
51739;DHT22;37815;52.692;6.226;2023-05-15T05:24:14;15.90;96.40
51739;DHT22;37815;52.692;6.226;2023-05-15T05:29:14;15.80;96.40
51739;DHT22;37815;52.692;6.226;2023-05-15T05:34:15;15.80;96.40
51739;DHT22;37815;52.692;6.226;2023-05-15T05:39:16;15.90;96.40
51739;DHT22;37815;52.692;6.226;2023-05-15T05:44:17;15.80;96.30
51739;DHT22;37815;52.692;6.226;2023-05-15T05:49:17;15.80;96.30
51739;DHT22;37815;52.692;6.226;2023-05-15T05:54:18;15.80;96.30
51739;DHT22;37815;52.692;6.226;2023-05-15T05:59:18;15.80;96.30
51739;DHT22;37815;52.692;6.226;2023-05-15T06:04:20;15.80;96.30
51739;DHT22;37815;52.692;6.226;2023-05-15T06:09:20;15.80;96.30
51739;DHT22;37815;52.692;6.226;2023-05-15T06:14:21;15.80;96.30
51739;DHT22;37815;52.692;6.226;2023-05-15T06:19:22;15.80;96.20
51739;DHT22;37815;52.692;6.226;2023-05-15T06:24:23;15.80;96.20
51739;DHT22;37815;52.692;6.226;2023-05-15T06:29:23;15.80;96.20
51739;DHT22;37815;52.692;6.226;2023-05-15T06:34:24;15.80;96.20
51739;DHT22;37815;52.692;6.226;2023-05-15T06:39:24;15.80;96.20
51739;DHT22;37815;52.692;6.226;2023-05-15T06:44:28;15.80;96.10
51739;DHT22;37815;52.692;6.226;2023-05-15T06:49:30;15.80;96.10
51739;DHT22;37815;52.692;6.226;2023-05-15T06:54:30;15.80;96.10
51739;DHT22;37815;52.692;6.226;2023-05-15T06:59:31;15.80;96.10
51739;DHT22;37815;52.692;6.226;2023-05-15T07:04:34;15.80;96.10
51739;DHT22;37815;52.692;6.226;2023-05-15T07:09:35;15.80;96.00
51739;DHT22;37815;52.692;6.226;2023-05-15T07:14:36;15.80;95.90
51739;DHT22;37815;52.692;6.226;2023-05-15T07:19:36;15.90;95.90
51739;DHT22;37815;52.692;6.226;2023-05-15T07:24:37;15.80;95.80
51739;DHT22;37815;52.692;6.226;2023-05-15T07:29:38;15.80;95.80
51739;DHT22;37815;52.692;6.226;2023-05-15T07:34:38;15.90;95.80
51739;DHT22;37815;52.692;6.226;2023-05-15T07:39:39;15.90;95.80
51739;DHT22;37815;52.692;6.226;2023-05-15T07:44:40;15.90;95.80
51739;DHT22;37815;52.692;6.226;2023-05-15T07:49:40;15.90;95.80
51739;DHT22;37815;52.692;6.226;2023-05-15T07:54:41;15.90;95.70
51739;DHT22;37815;52.692;6.226;2023-05-15T07:59:41;16.00;95.70
51739;DHT22;37815;52.692;6.226;2023-05-15T08:04:42;16.00;95.70
51739;DHT22;37815;52.692;6.226;2023-05-15T08:09:43;16.00;95.70
51739;DHT22;37815;52.692;6.226;2023-05-15T08:14:43;16.00;95.70
51739;DHT22;37815;52.692;6.226;2023-05-15T08:19:44;16.00;95.70
51739;DHT22;37815;52.692;6.226;2023-05-15T08:24:45;16.00;95.70
51739;DHT22;37815;52.692;6.226;2023-05-15T08:29:45;16.10;95.70
51739;DHT22;37815;52.692;6.226;2023-05-15T08:34:46;16.20;95.70
51739;DHT22;37815;52.692;6.226;2023-05-15T08:39:47;16.20;95.60
51739;DHT22;37815;52.692;6.226;2023-05-15T08:44:48;16.30;95.70
51739;DHT22;37815;52.692;6.226;2023-05-15T08:55:08;16.20;95.60
51739;DHT22;37815;52.692;6.226;2023-05-15T09:00:12;16.30;95.60
51739;DHT22;37815;52.692;6.226;2023-05-15T09:05:13;16.30;95.60
51739;DHT22;37815;52.692;6.226;2023-05-15T09:10:14;16.30;95.60
51739;DHT22;37815;52.692;6.226;2023-05-15T09:15:18;16.40;95.60
51739;DHT22;37815;52.692;6.226;2023-05-15T09:20:35;16.40;95.60
51739;DHT22;37815;52.692;6.226;2023-05-15T09:25:38;16.40;95.50
51739;DHT22;37815;52.692;6.226;2023-05-15T09:30:41;16.50;95.50
51739;DHT22;37815;52.692;6.226;2023-05-15T09:35:42;16.40;95.50
51739;DHT22;37815;52.692;6.226;2023-05-15T09:40:42;16.50;95.50
51739;DHT22;37815;52.692;6.226;2023-05-15T09:45:46;16.60;95.50
51739;DHT22;37815;52.692;6.226;2023-05-15T09:50:47;16.60;95.40
51739;DHT22;37815;52.692;6.226;2023-05-15T09:55:49;16.80;95.50
51739;DHT22;37815;52.692;6.226;2023-05-15T10:00:50;16.80;95.40
51739;DHT22;37815;52.692;6.226;2023-05-15T10:05:58;16.80;95.30
51739;DHT22;37815;52.692;6.226;2023-05-15T10:11:02;16.90;95.30
51739;DHT22;37815;52.692;6.226;2023-05-15T10:16:03;16.90;95.20
51739;DHT22;37815;52.692;6.226;2023-05-15T10:21:04;17.00;95.20
51739;DHT22;37815;52.692;6.226;2023-05-15T10:26:13;17.10;95.10
51739;DHT22;37815;52.692;6.226;2023-05-15T10:31:17;17.10;95.10
51739;DHT22;37815;52.692;6.226;2023-05-15T10:36:18;17.20;95.10
51739;DHT22;37815;52.692;6.226;2023-05-15T10:41:20;17.20;95.10
51739;DHT22;37815;52.692;6.226;2023-05-15T10:46:22;17.20;95.10
51739;DHT22;37815;52.692;6.226;2023-05-15T10:51:25;17.30;95.00
51739;DHT22;37815;52.692;6.226;2023-05-15T10:56:31;17.30;95.00
51739;DHT22;37815;52.692;6.226;2023-05-15T11:01:35;17.40;94.90
51739;DHT22;37815;52.692;6.226;2023-05-15T11:06:43;17.40;94.90
51739;DHT22;37815;52.692;6.226;2023-05-15T11:27:11;17.60;94.90
51739;DHT22;37815;52.692;6.226;2023-05-15T11:32:41;17.70;94.80
51739;DHT22;37815;52.692;6.226;2023-05-15T11:37:43;17.80;94.80
51739;DHT22;37815;52.692;6.226;2023-05-15T11:43:14;17.80;94.80
51739;DHT22;37815;52.692;6.226;2023-05-15T11:48:16;17.80;94.80
51739;DHT22;37815;52.692;6.226;2023-05-15T11:53:18;18.00;94.70
51739;DHT22;37815;52.692;6.226;2023-05-15T11:58:19;18.00;94.70
51739;DHT22;37815;52.692;6.226;2023-05-15T12:03:24;18.10;94.70
51739;DHT22;37815;52.692;6.226;2023-05-15T12:08:29;18.50;94.80
51739;DHT22;37815;52.692;6.226;2023-05-15T12:13:31;18.20;94.60
51739;DHT22;37815;52.692;6.226;2023-05-15T12:18:32;18.20;94.60
51739;DHT22;37815;52.692;6.226;2023-05-15T12:23:33;18.30;94.60
51739;DHT22;37815;52.692;6.226;2023-05-15T12:28:34;18.30;94.60
51739;DHT22;37815;52.692;6.226;2023-05-15T12:33:35;18.40;94.60
51739;DHT22;37815;52.692;6.226;2023-05-15T12:38:36;18.40;94.50
51739;DHT22;37815;52.692;6.226;2023-05-15T12:43:36;18.50;94.50
51739;DHT22;37815;52.692;6.226;2023-05-15T12:48:37;18.50;94.50
51739;DHT22;37815;52.692;6.226;2023-05-15T12:53:41;18.50;94.50
51739;DHT22;37815;52.692;6.226;2023-05-15T12:58:41;18.50;94.50
51739;DHT22;37815;52.692;6.226;2023-05-15T13:03:42;18.60;94.70
51739;DHT22;37815;52.692;6.226;2023-05-15T13:08:43;18.60;94.70
51739;DHT22;37815;52.692;6.226;2023-05-15T13:13:44;18.60;94.80
51739;DHT22;37815;52.692;6.226;2023-05-15T13:18:45;18.60;94.90
51739;DHT22;37815;52.692;6.226;2023-05-15T13:23:46;18.50;94.80
51739;DHT22;37815;52.692;6.226;2023-05-15T13:28:46;18.60;94.90
51739;DHT22;37815;52.692;6.226;2023-05-15T13:33:47;18.60;94.90
51739;DHT22;37815;52.692;6.226;2023-05-15T13:38:48;18.60;94.90
51739;DHT22;37815;52.692;6.226;2023-05-15T13:43:48;18.60;94.90
51739;DHT22;37815;52.692;6.226;2023-05-15T13:48:49;18.60;94.90
51739;DHT22;37815;52.692;6.226;2023-05-15T13:53:50;18.60;94.90
51739;DHT22;37815;52.692;6.226;2023-05-15T13:58:51;18.60;95.00
51739;DHT22;37815;52.692;6.226;2023-05-15T14:03:51;18.60;95.00
51739;DHT22;37815;52.692;6.226;2023-05-15T14:08:52;18.60;95.10
51739;DHT22;37815;52.692;6.226;2023-05-15T14:13:52;18.60;95.10
51739;DHT22;37815;52.692;6.226;2023-05-15T14:18:53;18.70;95.10
51739;DHT22;37815;52.692;6.226;2023-05-15T14:23:53;18.60;95.10
51739;DHT22;37815;52.692;6.226;2023-05-15T14:28:54;18.70;95.20
51739;DHT22;37815;52.692;6.226;2023-05-15T14:33:59;18.70;95.10
51739;DHT22;37815;52.692;6.226;2023-05-15T14:39:01;18.70;95.10
51739;DHT22;37815;52.692;6.226;2023-05-15T14:44:03;18.60;95.20
51739;DHT22;37815;52.692;6.226;2023-05-15T14:49:04;18.60;95.20
51739;DHT22;37815;52.692;6.226;2023-05-15T14:54:05;18.60;95.20
51739;DHT22;37815;52.692;6.226;2023-05-15T14:59:05;18.60;95.30
51739;DHT22;37815;52.692;6.226;2023-05-15T15:04:06;18.60;95.30
51739;DHT22;37815;52.692;6.226;2023-05-15T15:09:07;18.60;95.40
51739;DHT22;37815;52.692;6.226;2023-05-15T15:14:07;18.60;95.50
51739;DHT22;37815;52.692;6.226;2023-05-15T15:19:08;18.50;95.50
51739;DHT22;37815;52.692;6.226;2023-05-15T15:24:08;18.50;95.60
51739;DHT22;37815;52.692;6.226;2023-05-15T15:29:09;18.50;95.60
51739;DHT22;37815;52.692;6.226;2023-05-15T15:34:10;18.60;95.60
51739;DHT22;37815;52.692;6.226;2023-05-15T15:39:11;18.60;95.50
51739;DHT22;37815;52.692;6.226;2023-05-15T15:44:12;18.50;95.50
51739;DHT22;37815;52.692;6.226;2023-05-15T15:49:13;18.50;95.70
51739;DHT22;37815;52.692;6.226;2023-05-15T15:54:14;18.50;95.80
51739;DHT22;37815;52.692;6.226;2023-05-15T15:59:14;18.40;95.80
51739;DHT22;37815;52.692;6.226;2023-05-15T16:04:15;18.30;95.90
51739;DHT22;37815;52.692;6.226;2023-05-15T16:09:16;18.30;96.00
51739;DHT22;37815;52.692;6.226;2023-05-15T16:14:19;18.30;96.10
51739;DHT22;37815;52.692;6.226;2023-05-15T16:19:20;18.20;96.10
51739;DHT22;37815;52.692;6.226;2023-05-15T16:24:21;18.10;96.10
51739;DHT22;37815;52.692;6.226;2023-05-15T16:29:23;18.10;96.20
51739;DHT22;37815;52.692;6.226;2023-05-15T16:34:24;18.10;96.20
51739;DHT22;37815;52.692;6.226;2023-05-15T16:39:25;18.10;96.20
51739;DHT22;37815;52.692;6.226;2023-05-15T16:44:25;18.00;96.20
51739;DHT22;37815;52.692;6.226;2023-05-15T16:49:26;18.00;96.20
51739;DHT22;37815;52.692;6.226;2023-05-15T16:54:27;18.00;96.30
51739;DHT22;37815;52.692;6.226;2023-05-15T16:59:27;18.00;96.30
51739;DHT22;37815;52.692;6.226;2023-05-15T17:04:28;17.90;96.30
51739;DHT22;37815;52.692;6.226;2023-05-15T17:09:30;17.90;96.30
51739;DHT22;37815;52.692;6.226;2023-05-15T17:14:34;17.90;96.30
51739;DHT22;37815;52.692;6.226;2023-05-15T17:19:34;17.80;96.30
51739;DHT22;37815;52.692;6.226;2023-05-15T17:24:35;17.80;96.30
51739;DHT22;37815;52.692;6.226;2023-05-15T17:29:35;17.80;96.30
51739;DHT22;37815;52.692;6.226;2023-05-15T17:34:36;17.80;96.40
51739;DHT22;37815;52.692;6.226;2023-05-15T17:39:37;17.70;96.40
51739;DHT22;37815;52.692;6.226;2023-05-15T17:44:37;17.60;96.40
51739;DHT22;37815;52.692;6.226;2023-05-15T17:49:38;17.70;96.40
51739;DHT22;37815;52.692;6.226;2023-05-15T17:54:39;17.60;96.60
51739;DHT22;37815;52.692;6.226;2023-05-15T17:59:39;17.60;96.40
51739;DHT22;37815;52.692;6.226;2023-05-15T18:04:40;17.60;96.40
51739;DHT22;37815;52.692;6.226;2023-05-15T18:09:40;17.60;96.40
51739;DHT22;37815;52.692;6.226;2023-05-15T18:14:41;17.50;96.40
51739;DHT22;37815;52.692;6.226;2023-05-15T18:19:42;17.50;96.40
51739;DHT22;37815;52.692;6.226;2023-05-15T18:24:44;17.50;96.40
51739;DHT22;37815;52.692;6.226;2023-05-15T18:29:49;17.40;96.50
51739;DHT22;37815;52.692;6.226;2023-05-15T18:34:51;17.40;96.50
51739;DHT22;37815;52.692;6.226;2023-05-15T18:39:51;17.40;96.50
51739;DHT22;37815;52.692;6.226;2023-05-15T18:44:55;17.40;96.50
51739;DHT22;37815;52.692;6.226;2023-05-15T18:49:56;17.30;96.50
51739;DHT22;37815;52.692;6.226;2023-05-15T18:54:57;17.30;96.60
51739;DHT22;37815;52.692;6.226;2023-05-15T18:59:57;17.30;96.70
51739;DHT22;37815;52.692;6.226;2023-05-15T19:04:58;17.20;96.70
51739;DHT22;37815;52.692;6.226;2023-05-15T19:09:59;17.20;96.70
51739;DHT22;37815;52.692;6.226;2023-05-15T19:15:00;17.20;96.70
51739;DHT22;37815;52.692;6.226;2023-05-15T19:20:01;17.10;96.80
51739;DHT22;37815;52.692;6.226;2023-05-15T19:25:01;17.10;96.80
51739;DHT22;37815;52.692;6.226;2023-05-15T19:30:03;17.10;96.80
51739;DHT22;37815;52.692;6.226;2023-05-15T19:35:04;17.00;96.80
51739;DHT22;37815;52.692;6.226;2023-05-15T19:40:05;17.00;96.90
51739;DHT22;37815;52.692;6.226;2023-05-15T19:45:06;17.00;97.20
51739;DHT22;37815;52.692;6.226;2023-05-15T19:50:08;16.90;97.00
51739;DHT22;37815;52.692;6.226;2023-05-15T19:55:09;16.90;96.90
51739;DHT22;37815;52.692;6.226;2023-05-15T20:00:10;16.90;97.00
51739;DHT22;37815;52.692;6.226;2023-05-15T20:05:11;16.80;96.90
51739;DHT22;37815;52.692;6.226;2023-05-15T20:10:12;16.80;96.90
51739;DHT22;37815;52.692;6.226;2023-05-15T20:15:15;16.80;96.90
51739;DHT22;37815;52.692;6.226;2023-05-15T20:20:16;16.70;96.90
51739;DHT22;37815;52.692;6.226;2023-05-15T20:25:17;16.70;97.00
51739;DHT22;37815;52.692;6.226;2023-05-15T20:30:17;16.70;97.00
51739;DHT22;37815;52.692;6.226;2023-05-15T20:35:18;16.60;96.90
51739;DHT22;37815;52.692;6.226;2023-05-15T20:40:20;16.60;96.90
51739;DHT22;37815;52.692;6.226;2023-05-15T20:45:22;16.60;96.90
51739;DHT22;37815;52.692;6.226;2023-05-15T20:50:23;16.60;96.80
51739;DHT22;37815;52.692;6.226;2023-05-15T20:55:24;16.50;96.80
51739;DHT22;37815;52.692;6.226;2023-05-15T21:00:24;16.50;96.70
51739;DHT22;37815;52.692;6.226;2023-05-15T21:05:25;16.40;96.70
51739;DHT22;37815;52.692;6.226;2023-05-15T21:10:25;16.40;96.70
51739;DHT22;37815;52.692;6.226;2023-05-15T21:15:26;16.40;96.70
51739;DHT22;37815;52.692;6.226;2023-05-15T21:20:27;16.40;96.70
51739;DHT22;37815;52.692;6.226;2023-05-15T21:25:27;16.40;96.70
51739;DHT22;37815;52.692;6.226;2023-05-15T21:30:28;16.30;96.70
51739;DHT22;37815;52.692;6.226;2023-05-15T21:35:28;16.30;96.60
51739;DHT22;37815;52.692;6.226;2023-05-15T21:40:31;16.30;96.60
51739;DHT22;37815;52.692;6.226;2023-05-15T21:45:31;16.20;96.60
51739;DHT22;37815;52.692;6.226;2023-05-15T21:50:32;16.20;96.50
51739;DHT22;37815;52.692;6.226;2023-05-15T21:55:33;16.20;96.50
51739;DHT22;37815;52.692;6.226;2023-05-15T22:00:33;16.20;96.50
51739;DHT22;37815;52.692;6.226;2023-05-15T22:05:34;16.10;96.50
51739;DHT22;37815;52.692;6.226;2023-05-15T22:10:34;16.10;96.50
51739;DHT22;37815;52.692;6.226;2023-05-15T22:15:35;16.10;96.50
51739;DHT22;37815;52.692;6.226;2023-05-15T22:20:36;16.10;96.50
51739;DHT22;37815;52.692;6.226;2023-05-15T22:25:37;16.00;96.50
51739;DHT22;37815;52.692;6.226;2023-05-15T22:30:37;16.00;96.50
51739;DHT22;37815;52.692;6.226;2023-05-15T22:35:38;16.00;96.40
51739;DHT22;37815;52.692;6.226;2023-05-15T22:40:38;16.00;96.50
51739;DHT22;37815;52.692;6.226;2023-05-15T22:45:39;15.90;96.40
51739;DHT22;37815;52.692;6.226;2023-05-15T22:50:39;16.00;96.40
51739;DHT22;37815;52.692;6.226;2023-05-15T22:55:41;15.90;96.40
51739;DHT22;37815;52.692;6.226;2023-05-15T23:00:41;15.90;96.40
51739;DHT22;37815;52.692;6.226;2023-05-15T23:05:42;15.90;96.40
51739;DHT22;37815;52.692;6.226;2023-05-15T23:10:42;15.80;96.40
51739;DHT22;37815;52.692;6.226;2023-05-15T23:15:43;15.80;96.40
51739;DHT22;37815;52.692;6.226;2023-05-15T23:20:44;15.80;96.40
51739;DHT22;37815;52.692;6.226;2023-05-15T23:25:45;15.70;96.40
51739;DHT22;37815;52.692;6.226;2023-05-15T23:30:45;15.70;96.40
51739;DHT22;37815;52.692;6.226;2023-05-15T23:35:46;15.70;96.40
51739;DHT22;37815;52.692;6.226;2023-05-15T23:40:47;15.70;96.40
51739;DHT22;37815;52.692;6.226;2023-05-15T23:45:48;15.70;96.40
51739;DHT22;37815;52.692;6.226;2023-05-15T23:50:49;15.60;96.40
51739;DHT22;37815;52.692;6.226;2023-05-15T23:55:51;15.60;96.40
